createdAt,value
2022-09-10T00:03:55.966Z,16.90
2022-09-10T00:07:58.291Z,16.90
2022-09-10T00:12:00.020Z,17.00
2022-09-10T00:16:03.754Z,17.10
2022-09-10T00:20:06.533Z,17.10
2022-09-10T00:24:08.515Z,17.20
2022-09-10T00:28:10.260Z,17.10
2022-09-10T00:32:11.963Z,17.10
2022-09-10T00:36:19.740Z,17.10
2022-09-10T00:40:21.439Z,17.10
2022-09-10T00:44:43.511Z,17.20
2022-09-10T00:48:45.227Z,17.20
2022-09-10T00:52:47.480Z,17.10
2022-09-10T00:56:49.693Z,17.20
2022-09-10T01:00:54.535Z,17.20
2022-09-10T01:04:56.393Z,17.30
2022-09-10T01:08:58.716Z,17.30
2022-09-10T01:13:29.629Z,17.30
2022-09-10T01:17:45.666Z,17.30
2022-09-10T01:22:05.478Z,17.30
2022-09-10T01:26:47.261Z,17.20
2022-09-10T01:30:53.476Z,17.00
2022-09-10T01:35:17.683Z,16.90
2022-09-10T01:39:20.113Z,16.90
2022-09-10T01:43:22.999Z,16.80
2022-09-10T01:48:00.912Z,16.70
2022-09-10T01:52:37.186Z,16.60
2022-09-10T01:56:54.002Z,16.50
2022-09-10T02:01:42.575Z,16.50
2022-09-10T02:05:51.531Z,16.40
2022-09-10T02:10:07.604Z,16.30
2022-09-10T02:14:15.526Z,16.20
2022-09-10T02:18:24.536Z,16.10
2022-09-10T02:22:26.439Z,16.10
2022-09-10T02:26:28.159Z,16.00
2022-09-10T02:30:30.143Z,16.00
2022-09-10T02:34:32.448Z,16.00
2022-09-10T02:38:36.939Z,16.00
2022-09-10T02:42:38.929Z,16.00
2022-09-10T02:46:40.693Z,15.90
2022-09-10T02:50:45.790Z,15.90
2022-09-10T02:54:49.124Z,15.80
2022-09-10T02:58:51.122Z,15.80
2022-09-10T03:02:52.846Z,15.70
2022-09-10T03:06:54.985Z,15.70
2022-09-10T03:10:58.134Z,15.70
2022-09-10T03:14:59.918Z,15.70
2022-09-10T03:19:01.643Z,15.60
2022-09-10T03:23:05.956Z,15.60
2022-09-10T03:27:08.543Z,15.60
2022-09-10T03:31:11.050Z,15.50
2022-09-10T03:35:13.755Z,15.50
2022-09-10T03:39:16.285Z,15.50
2022-09-10T03:43:20.028Z,15.40
2022-09-10T03:47:21.940Z,15.20
2022-09-10T03:51:23.662Z,15.20
2022-09-10T03:55:25.453Z,15.20
2022-09-10T03:59:27.126Z,15.10
2022-09-10T04:03:29.236Z,15.10
2022-09-10T04:07:30.905Z,15.10
2022-09-10T04:11:33.256Z,15.10
2022-09-10T04:15:35.002Z,15.10
2022-09-10T04:19:37.977Z,15.10
2022-09-10T04:23:42.324Z,15.10
2022-09-10T04:27:44.289Z,15.00
2022-09-10T04:31:46.749Z,14.90
2022-09-10T04:35:48.563Z,14.90
2022-09-10T04:39:51.561Z,14.80
2022-09-10T04:43:53.315Z,14.80
2022-09-10T04:47:56.021Z,14.70
2022-09-10T04:51:57.804Z,14.80
2022-09-10T04:55:59.471Z,14.70
2022-09-10T05:00:01.418Z,14.70
2022-09-10T05:04:04.079Z,14.80
2022-09-10T05:08:07.430Z,15.10
2022-09-10T05:12:09.245Z,15.50
2022-09-10T05:16:11.765Z,16.40
2022-09-10T05:20:14.049Z,16.90
2022-09-10T05:24:16.507Z,17.60
2022-09-10T05:28:18.223Z,18.00
2022-09-10T05:32:19.971Z,18.30
2022-09-10T05:36:21.856Z,18.50
2022-09-10T05:40:23.667Z,18.50
2022-09-10T05:44:25.392Z,19.10
2022-09-10T05:48:27.165Z,19.90
2022-09-10T05:52:30.935Z,20.60
2022-09-10T05:56:35.893Z,21.50
2022-09-10T06:00:37.608Z,22.30
2022-09-10T06:04:40.599Z,23.00
2022-09-10T06:08:42.519Z,23.30
2022-09-10T06:12:47.954Z,24.00
2022-09-10T06:16:49.981Z,24.50
2022-09-10T06:21:05.344Z,24.90
2022-09-10T06:25:07.647Z,25.40
2022-09-10T06:29:09.479Z,24.70
2022-09-10T06:33:13.201Z,24.00
2022-09-10T06:37:15.131Z,23.70
2022-09-10T06:41:17.226Z,23.80
2022-09-10T06:45:19.360Z,24.10
2022-09-10T06:49:21.713Z,24.20
2022-09-10T06:53:24.700Z,24.90
2022-09-10T06:57:26.875Z,24.90
2022-09-10T07:01:31.801Z,25.00
2022-09-10T07:05:39.481Z,25.30
2022-09-10T07:09:41.267Z,25.60
2022-09-10T07:13:43.287Z,25.60
2022-09-10T07:17:47.505Z,26.00
2022-09-10T07:21:50.147Z,26.20
2022-09-10T07:25:52.009Z,26.30
2022-09-10T07:29:53.703Z,26.20
2022-09-10T07:33:57.672Z,26.20
2022-09-10T07:38:00.203Z,25.50
2022-09-10T07:42:01.909Z,25.10
2022-09-10T07:46:04.403Z,24.80
2022-09-10T07:50:07.189Z,24.70
2022-09-10T07:54:08.952Z,24.90
2022-09-10T07:58:10.895Z,24.70
2022-09-10T08:02:15.464Z,24.20
2022-09-10T08:06:17.496Z,23.90
2022-09-10T08:10:19.605Z,23.70
2022-09-10T08:14:21.370Z,23.70
2022-09-10T08:18:23.214Z,23.70
2022-09-10T08:22:25.288Z,23.70
2022-09-10T08:26:27.481Z,23.50
2022-09-10T08:30:30.439Z,23.80
2022-09-10T08:34:32.154Z,23.70
2022-09-10T08:38:40.038Z,23.70
2022-09-10T08:42:47.027Z,24.00
2022-09-10T08:47:29.980Z,23.80
2022-09-10T08:51:40.014Z,23.80
2022-09-10T08:55:44.169Z,24.20
2022-09-10T08:59:50.187Z,24.30
2022-09-10T09:03:51.878Z,23.90
2022-09-10T09:07:53.799Z,23.50
2022-09-10T09:12:33.980Z,23.60
2022-09-10T09:17:05.146Z,23.80
2022-09-10T09:21:17.494Z,24.00
2022-09-10T09:25:30.813Z,24.50
2022-09-10T09:29:38.129Z,24.70
2022-09-10T09:33:40.068Z,24.50
2022-09-10T09:37:49.495Z,24.40
2022-09-10T09:42:24.120Z,24.30
2022-09-10T09:46:26.213Z,24.10
2022-09-10T09:50:28.633Z,23.80
2022-09-10T09:55:03.322Z,23.80
2022-09-10T10:03:28.481Z,23.50
2022-09-10T10:07:32.688Z,23.90
2022-09-10T10:12:02.885Z,24.10
2022-09-10T10:16:37.585Z,24.40
2022-09-10T10:21:11.608Z,24.40
2022-09-10T10:25:43.002Z,24.50
2022-09-10T10:30:04.057Z,24.70
2022-09-10T10:34:18.407Z,24.70
2022-09-10T10:38:42.605Z,24.40
2022-09-10T10:42:54.156Z,24.10
2022-09-10T10:47:42.914Z,24.50
2022-09-10T10:52:27.494Z,24.90
2022-09-10T10:56:42.665Z,24.80
2022-09-10T11:01:18.338Z,24.20
2022-09-10T11:05:38.837Z,23.20
2022-09-10T11:09:51.129Z,23.30
2022-09-10T11:14:32.497Z,23.40
2022-09-10T11:19:13.903Z,23.60
2022-09-10T11:29:01.892Z,24.10
2022-09-10T11:34:04.079Z,23.80
2022-09-10T11:38:32.307Z,23.60
2022-09-10T11:42:54.132Z,23.60
2022-09-10T11:47:29.453Z,23.70
2022-09-10T11:51:46.413Z,23.80
2022-09-10T11:56:15.208Z,24.20
2022-09-10T12:00:34.270Z,23.70
2022-09-10T12:04:47.670Z,23.30
2022-09-10T12:09:00.983Z,23.20
2022-09-10T12:13:08.350Z,23.30
2022-09-10T12:17:36.829Z,23.50
2022-09-10T12:21:42.793Z,23.60
2022-09-10T12:25:44.503Z,23.60
2022-09-10T12:29:46.539Z,23.50
2022-09-10T12:33:48.242Z,23.50
2022-09-10T12:37:52.910Z,23.50
2022-09-10T12:42:02.616Z,23.50
2022-09-10T12:46:18.991Z,23.60
2022-09-10T12:50:28.952Z,24.00
2022-09-10T12:54:47.034Z,24.30
2022-09-10T12:59:17.480Z,24.50
2022-09-10T13:03:28.772Z,24.40
2022-09-10T13:07:37.343Z,24.70
2022-09-10T13:11:39.185Z,24.60
2022-09-10T13:15:50.337Z,24.60
2022-09-10T13:19:52.224Z,24.20
2022-09-10T13:23:54.982Z,23.80
2022-09-10T13:27:57.052Z,24.10
2022-09-10T13:32:14.160Z,24.10
2022-09-10T13:36:41.667Z,24.00
2022-09-10T13:41:14.406Z,23.70
2022-09-10T13:45:38.396Z,23.50
2022-09-10T13:50:02.631Z,23.40
2022-09-10T13:54:11.439Z,23.30
2022-09-10T13:58:16.479Z,23.10
2022-09-10T14:02:19.812Z,23.20
2022-09-10T14:06:22.765Z,23.10
2022-09-10T14:10:24.516Z,23.20
2022-09-10T14:14:32.362Z,23.00
2022-09-10T14:19:01.819Z,22.90
2022-09-10T14:23:15.259Z,23.10
2022-09-10T14:27:27.641Z,23.30
2022-09-10T14:31:34.286Z,23.30
2022-09-10T14:35:44.323Z,23.50
2022-09-10T14:39:46.123Z,23.20
2022-09-10T14:43:48.200Z,23.30
2022-09-10T14:47:53.928Z,23.00
2022-09-10T14:51:57.144Z,22.70
2022-09-10T14:55:59.261Z,22.70
2022-09-10T15:00:01.085Z,22.70
2022-09-10T15:04:03.475Z,23.00
2022-09-10T15:08:05.293Z,23.10
2022-09-10T15:12:15.390Z,23.10
2022-09-10T15:16:17.780Z,22.90
2022-09-10T15:20:21.256Z,22.70
2022-09-10T15:24:24.579Z,22.40
2022-09-10T15:28:26.351Z,22.40
2022-09-10T15:32:28.172Z,22.30
2022-09-10T15:36:29.952Z,22.30
2022-09-10T15:40:31.832Z,22.10
2022-09-10T15:44:33.710Z,21.80
2022-09-10T15:48:35.613Z,21.70
2022-09-10T15:52:38.245Z,21.60
2022-09-10T15:56:40.466Z,21.70
2022-09-10T16:00:42.431Z,21.70
2022-09-10T16:04:46.881Z,21.60
2022-09-10T16:09:01.013Z,21.70
2022-09-10T16:13:02.696Z,21.70
2022-09-10T16:17:10.389Z,21.80
2022-09-10T16:21:17.189Z,21.90
2022-09-10T16:25:19.353Z,21.90
2022-09-10T16:29:21.335Z,21.90
2022-09-10T16:33:25.744Z,22.00
2022-09-10T16:37:28.386Z,22.00
2022-09-10T16:41:30.924Z,22.00
2022-09-10T16:45:35.570Z,21.90
2022-09-10T16:49:37.320Z,21.70
2022-09-10T16:53:39.464Z,21.50
2022-09-10T16:57:41.318Z,21.40
2022-09-10T17:01:44.153Z,21.30
2022-09-10T17:05:46.938Z,21.20
2022-09-10T17:09:48.839Z,21.00
2022-09-10T17:14:06.036Z,20.90
2022-09-10T17:18:08.023Z,20.90
2022-09-10T17:22:10.903Z,20.70
2022-09-10T17:26:12.978Z,20.60
2022-09-10T17:30:14.934Z,20.50
2022-09-10T17:34:24.678Z,20.50
2022-09-10T17:38:29.113Z,20.40
2022-09-10T17:42:34.150Z,20.30
2022-09-10T17:46:38.815Z,20.30
2022-09-10T17:50:50.322Z,20.10
2022-09-10T17:54:56.577Z,20.00
2022-09-10T17:59:02.701Z,19.90
2022-09-10T18:03:05.161Z,19.80
2022-09-10T18:07:07.160Z,19.60
2022-09-10T18:11:12.263Z,19.50
2022-09-10T18:15:14.252Z,19.30
2022-09-10T18:19:21.605Z,19.30
2022-09-10T18:23:23.583Z,19.10
2022-09-10T18:27:26.450Z,19.10
2022-09-10T18:31:33.845Z,19.00
2022-09-10T18:36:07.485Z,18.80
2022-09-10T18:40:10.843Z,18.70
2022-09-10T18:44:28.366Z,18.60
2022-09-10T18:48:53.569Z,18.40
2022-09-10T18:52:58.937Z,18.30
2022-09-10T18:57:10.950Z,18.20
2022-09-10T19:01:14.459Z,18.20
2022-09-10T19:05:16.589Z,18.00
2022-09-10T19:09:23.106Z,17.90
2022-09-10T19:13:31.485Z,17.90
2022-09-10T19:17:37.694Z,17.90
2022-09-10T19:21:43.049Z,18.00
2022-09-10T19:25:53.483Z,18.10
2022-09-10T19:29:55.877Z,18.00
2022-09-10T19:34:05.355Z,18.10
2022-09-10T19:38:27.234Z,18.10
2022-09-10T19:42:30.362Z,18.20
2022-09-10T19:46:33.522Z,18.30
2022-09-10T19:50:35.412Z,18.30
2022-09-10T19:54:42.291Z,18.30
2022-09-10T19:58:44.339Z,18.40
2022-09-10T20:02:49.975Z,18.40
2022-09-10T20:06:52.270Z,18.40
2022-09-10T20:10:56.846Z,18.40
2022-09-10T20:14:58.607Z,18.30
2022-09-10T20:19:02.425Z,18.30
2022-09-10T20:23:04.275Z,18.40
2022-09-10T20:27:06.029Z,18.40
2022-09-10T20:31:09.817Z,18.40
2022-09-10T20:35:14.857Z,18.40
2022-09-10T20:39:18.410Z,18.40
2022-09-10T20:43:23.115Z,18.40
2022-09-10T20:47:30.807Z,18.40
2022-09-10T20:51:40.611Z,18.50
2022-09-10T20:55:44.783Z,18.40
2022-09-10T20:59:47.759Z,18.40
2022-09-10T21:03:53.028Z,18.30
2022-09-10T21:07:55.503Z,18.30
2022-09-10T21:11:57.400Z,18.20
2022-09-10T21:16:11.163Z,18.20
2022-09-10T21:20:13.421Z,18.10
2022-09-10T21:24:22.401Z,18.10
2022-09-10T21:28:24.256Z,18.00
2022-09-10T21:32:26.017Z,18.10
2022-09-10T21:36:28.154Z,18.00
2022-09-10T21:40:31.179Z,17.90
2022-09-10T21:44:32.988Z,17.80
2022-09-10T21:48:37.514Z,17.80
2022-09-10T21:52:41.022Z,17.70
2022-09-10T21:56:42.750Z,17.70
2022-09-10T22:00:44.547Z,17.60
2022-09-10T22:04:46.395Z,17.60
2022-09-10T22:08:50.655Z,17.50
2022-09-10T22:12:52.870Z,17.40
2022-09-10T22:16:55.136Z,17.40
2022-09-10T22:21:00.940Z,17.30
2022-09-10T22:25:02.891Z,17.30
2022-09-10T22:29:04.616Z,17.30
2022-09-10T22:33:06.458Z,17.30
2022-09-10T22:37:08.190Z,17.30
2022-09-10T22:41:10.315Z,17.20
2022-09-10T22:45:12.531Z,17.20
2022-09-10T22:49:16.082Z,17.10
2022-09-10T22:53:18.018Z,17.10
2022-09-10T22:57:19.754Z,17.10
2022-09-10T23:01:24.360Z,17.10
2022-09-10T23:05:26.151Z,17.10
2022-09-10T23:09:28.034Z,17.00
2022-09-10T23:13:29.842Z,17.00
2022-09-10T23:17:31.805Z,17.00
2022-09-10T23:21:34.501Z,17.00
2022-09-10T23:25:36.285Z,17.10
2022-09-10T23:29:37.998Z,17.00
2022-09-10T23:33:48.687Z,17.00
2022-09-10T23:37:51.258Z,17.00
2022-09-10T23:41:56.669Z,16.90
2022-09-10T23:45:58.982Z,17.00
2022-09-10T23:50:00.831Z,17.00
2022-09-10T23:54:02.954Z,17.10
2022-09-10T23:58:04.652Z,17.10
